sensor_id;sensor_type;location;lat;lon;timestamp;temperature;humidity
57466;DHT22;67033;44.984;20.068;2023-01-19T00:01:35;11.00;99.90
57466;DHT22;67033;44.984;20.068;2023-01-19T00:04:01;11.00;99.90
57466;DHT22;67033;44.984;20.068;2023-01-19T00:06:27;11.00;99.90
57466;DHT22;67033;44.984;20.068;2023-01-19T00:08:53;10.90;99.90
57466;DHT22;67033;44.984;20.068;2023-01-19T00:11:19;11.00;99.90
57466;DHT22;67033;44.984;20.068;2023-01-19T00:13:45;11.00;99.90
57466;DHT22;67033;44.984;20.068;2023-01-19T00:16:16;11.00;99.90
57466;DHT22;67033;44.984;20.068;2023-01-19T00:18:45;10.90;99.90
57466;DHT22;67033;44.984;20.068;2023-01-19T00:21:12;11.00;99.90
57466;DHT22;67033;44.984;20.068;2023-01-19T00:23:39;11.00;99.90
57466;DHT22;67033;44.984;20.068;2023-01-19T00:26:05;10.90;99.90
57466;DHT22;67033;44.984;20.068;2023-01-19T00:28:33;10.80;99.90
57466;DHT22;67033;44.984;20.068;2023-01-19T00:30:59;10.90;99.90
57466;DHT22;67033;44.984;20.068;2023-01-19T00:33:25;10.80;99.90
57466;DHT22;67033;44.984;20.068;2023-01-19T00:35:52;10.70;99.90
57466;DHT22;67033;44.984;20.068;2023-01-19T00:38:19;10.80;99.90
57466;DHT22;67033;44.984;20.068;2023-01-19T00:40:46;10.70;99.90
57466;DHT22;67033;44.984;20.068;2023-01-19T00:43:12;10.80;99.90
57466;DHT22;67033;44.984;20.068;2023-01-19T00:45:38;10.70;99.90
57466;DHT22;67033;44.984;20.068;2023-01-19T00:48:04;10.60;99.90
57466;DHT22;67033;44.984;20.068;2023-01-19T00:50:31;10.70;99.90
57466;DHT22;67033;44.984;20.068;2023-01-19T00:52:58;10.70;99.90
57466;DHT22;67033;44.984;20.068;2023-01-19T00:55:28;10.70;99.90
57466;DHT22;67033;44.984;20.068;2023-01-19T00:57:55;10.60;99.90
57466;DHT22;67033;44.984;20.068;2023-01-19T01:00:22;10.60;99.90
57466;DHT22;67033;44.984;20.068;2023-01-19T01:02:49;10.60;99.90
57466;DHT22;67033;44.984;20.068;2023-01-19T01:05:16;10.50;99.90
57466;DHT22;67033;44.984;20.068;2023-01-19T01:07:43;10.50;99.90
57466;DHT22;67033;44.984;20.068;2023-01-19T01:10:15;10.50;99.90
57466;DHT22;67033;44.984;20.068;2023-01-19T01:12:42;10.50;99.90
57466;DHT22;67033;44.984;20.068;2023-01-19T01:15:10;10.50;99.90
57466;DHT22;67033;44.984;20.068;2023-01-19T01:17:36;10.50;99.90
57466;DHT22;67033;44.984;20.068;2023-01-19T01:20:03;10.50;99.90
57466;DHT22;67033;44.984;20.068;2023-01-19T01:22:29;10.60;99.90
57466;DHT22;67033;44.984;20.068;2023-01-19T01:24:55;10.60;99.90
57466;DHT22;67033;44.984;20.068;2023-01-19T01:27:21;10.60;99.90
57466;DHT22;67033;44.984;20.068;2023-01-19T01:29:47;10.60;99.90
57466;DHT22;67033;44.984;20.068;2023-01-19T01:32:14;10.70;99.90
57466;DHT22;67033;44.984;20.068;2023-01-19T01:34:40;10.70;99.90
57466;DHT22;67033;44.984;20.068;2023-01-19T01:37:06;10.70;99.90
57466;DHT22;67033;44.984;20.068;2023-01-19T01:39:35;10.70;99.90
57466;DHT22;67033;44.984;20.068;2023-01-19T01:42:02;10.70;99.90
57466;DHT22;67033;44.984;20.068;2023-01-19T01:44:51;10.70;99.90
57466;DHT22;67033;44.984;20.068;2023-01-19T01:47:44;10.60;99.90
57466;DHT22;67033;44.984;20.068;2023-01-19T01:50:21;10.60;99.90
57466;DHT22;67033;44.984;20.068;2023-01-19T01:52:51;10.60;99.90
57466;DHT22;67033;44.984;20.068;2023-01-19T01:55:19;10.60;99.90
57466;DHT22;67033;44.984;20.068;2023-01-19T01:57:50;10.60;99.90
57466;DHT22;67033;44.984;20.068;2023-01-19T02:00:17;10.70;99.90
57466;DHT22;67033;44.984;20.068;2023-01-19T02:02:42;10.60;99.90
57466;DHT22;67033;44.984;20.068;2023-01-19T02:05:25;10.70;99.90
57466;DHT22;67033;44.984;20.068;2023-01-19T02:08:09;10.70;99.90
57466;DHT22;67033;44.984;20.068;2023-01-19T02:10:55;10.70;99.90
57466;DHT22;67033;44.984;20.068;2023-01-19T02:13:40;10.70;99.90
57466;DHT22;67033;44.984;20.068;2023-01-19T02:16:13;10.80;99.90
57466;DHT22;67033;44.984;20.068;2023-01-19T02:18:39;10.80;99.90
57466;DHT22;67033;44.984;20.068;2023-01-19T02:23:52;10.70;99.90
57466;DHT22;67033;44.984;20.068;2023-01-19T02:28:58;10.70;99.90
57466;DHT22;67033;44.984;20.068;2023-01-19T02:31:25;10.70;99.90
57466;DHT22;67033;44.984;20.068;2023-01-19T02:33:51;10.70;99.90
57466;DHT22;67033;44.984;20.068;2023-01-19T02:36:24;10.70;99.90
57466;DHT22;67033;44.984;20.068;2023-01-19T02:38:54;10.70;99.90
57466;DHT22;67033;44.984;20.068;2023-01-19T02:41:26;10.70;99.90
57466;DHT22;67033;44.984;20.068;2023-01-19T02:43:53;10.70;99.90
57466;DHT22;67033;44.984;20.068;2023-01-19T02:46:20;10.80;99.90
57466;DHT22;67033;44.984;20.068;2023-01-19T02:48:46;10.80;99.90
57466;DHT22;67033;44.984;20.068;2023-01-19T02:51:25;10.80;99.90
57466;DHT22;67033;44.984;20.068;2023-01-19T02:56:37;10.80;99.90
57466;DHT22;67033;44.984;20.068;2023-01-19T03:02:34;10.90;99.90
57466;DHT22;67033;44.984;20.068;2023-01-19T03:11:10;10.90;99.90
57466;DHT22;67033;44.984;20.068;2023-01-19T03:16:34;10.90;99.90
57466;DHT22;67033;44.984;20.068;2023-01-19T03:19:09;10.90;99.90
57466;DHT22;67033;44.984;20.068;2023-01-19T03:21:36;10.90;99.90
57466;DHT22;67033;44.984;20.068;2023-01-19T03:24:05;11.00;99.90
57466;DHT22;67033;44.984;20.068;2023-01-19T03:26:38;11.00;99.90
57466;DHT22;67033;44.984;20.068;2023-01-19T03:29:08;10.90;99.90
57466;DHT22;67033;44.984;20.068;2023-01-19T03:31:36;10.90;99.90
57466;DHT22;67033;44.984;20.068;2023-01-19T03:34:08;10.90;99.90
57466;DHT22;67033;44.984;20.068;2023-01-19T03:36:42;10.90;99.90
57466;DHT22;67033;44.984;20.068;2023-01-19T03:39:09;10.90;99.90
57466;DHT22;67033;44.984;20.068;2023-01-19T03:41:38;10.90;99.90
57466;DHT22;67033;44.984;20.068;2023-01-19T03:44:06;10.90;99.90
57466;DHT22;67033;44.984;20.068;2023-01-19T03:46:33;10.90;99.90
57466;DHT22;67033;44.984;20.068;2023-01-19T03:48:59;10.90;99.90
57466;DHT22;67033;44.984;20.068;2023-01-19T03:51:26;10.90;99.90
57466;DHT22;67033;44.984;20.068;2023-01-19T03:53:52;10.90;99.90
57466;DHT22;67033;44.984;20.068;2023-01-19T03:56:20;10.90;99.90
57466;DHT22;67033;44.984;20.068;2023-01-19T03:58:47;11.00;99.90
57466;DHT22;67033;44.984;20.068;2023-01-19T04:01:14;10.90;99.90
57466;DHT22;67033;44.984;20.068;2023-01-19T04:03:40;10.90;99.90
57466;DHT22;67033;44.984;20.068;2023-01-19T04:06:08;10.90;99.90
57466;DHT22;67033;44.984;20.068;2023-01-19T04:08:34;11.00;99.90
57466;DHT22;67033;44.984;20.068;2023-01-19T04:11:00;11.00;99.90
57466;DHT22;67033;44.984;20.068;2023-01-19T04:13:26;10.90;99.90
57466;DHT22;67033;44.984;20.068;2023-01-19T04:15:58;10.90;99.90
57466;DHT22;67033;44.984;20.068;2023-01-19T04:18:24;10.90;99.90
57466;DHT22;67033;44.984;20.068;2023-01-19T04:20:50;10.90;99.90
57466;DHT22;67033;44.984;20.068;2023-01-19T04:23:16;10.80;99.90
57466;DHT22;67033;44.984;20.068;2023-01-19T04:25:42;10.80;99.90
57466;DHT22;67033;44.984;20.068;2023-01-19T04:28:08;10.80;99.90
57466;DHT22;67033;44.984;20.068;2023-01-19T04:30:34;10.80;99.90
57466;DHT22;67033;44.984;20.068;2023-01-19T04:33:00;10.80;99.90
57466;DHT22;67033;44.984;20.068;2023-01-19T04:35:26;10.90;99.90
57466;DHT22;67033;44.984;20.068;2023-01-19T04:37:52;10.90;99.90
57466;DHT22;67033;44.984;20.068;2023-01-19T04:40:18;10.90;99.90
57466;DHT22;67033;44.984;20.068;2023-01-19T04:42:44;10.90;99.90
57466;DHT22;67033;44.984;20.068;2023-01-19T04:45:11;10.90;99.90
57466;DHT22;67033;44.984;20.068;2023-01-19T04:47:38;10.90;99.90
57466;DHT22;67033;44.984;20.068;2023-01-19T04:50:04;10.90;99.90
57466;DHT22;67033;44.984;20.068;2023-01-19T04:52:32;10.90;99.90
57466;DHT22;67033;44.984;20.068;2023-01-19T04:55:02;10.90;99.90
57466;DHT22;67033;44.984;20.068;2023-01-19T04:57:29;10.90;99.90
57466;DHT22;67033;44.984;20.068;2023-01-19T04:59:56;11.00;99.90
57466;DHT22;67033;44.984;20.068;2023-01-19T05:02:23;10.90;99.90
57466;DHT22;67033;44.984;20.068;2023-01-19T05:04:49;10.90;99.90
57466;DHT22;67033;44.984;20.068;2023-01-19T05:07:15;10.90;99.90
57466;DHT22;67033;44.984;20.068;2023-01-19T05:09:41;10.90;99.90
57466;DHT22;67033;44.984;20.068;2023-01-19T05:12:07;10.90;99.90
57466;DHT22;67033;44.984;20.068;2023-01-19T05:14:33;10.90;99.90
57466;DHT22;67033;44.984;20.068;2023-01-19T05:16:59;10.80;99.90
57466;DHT22;67033;44.984;20.068;2023-01-19T05:19:27;10.80;99.90
57466;DHT22;67033;44.984;20.068;2023-01-19T05:21:53;10.80;99.90
57466;DHT22;67033;44.984;20.068;2023-01-19T05:24:19;10.80;99.90
57466;DHT22;67033;44.984;20.068;2023-01-19T05:26:45;10.80;99.90
57466;DHT22;67033;44.984;20.068;2023-01-19T05:29:12;10.80;99.90
57466;DHT22;67033;44.984;20.068;2023-01-19T05:31:38;10.80;99.90
57466;DHT22;67033;44.984;20.068;2023-01-19T05:34:04;10.70;99.90
57466;DHT22;67033;44.984;20.068;2023-01-19T05:36:30;10.70;99.90
57466;DHT22;67033;44.984;20.068;2023-01-19T05:38:56;10.60;99.90
57466;DHT22;67033;44.984;20.068;2023-01-19T05:41:22;10.60;99.90
57466;DHT22;67033;44.984;20.068;2023-01-19T05:43:48;10.50;99.90
57466;DHT22;67033;44.984;20.068;2023-01-19T05:46:14;10.50;99.90
57466;DHT22;67033;44.984;20.068;2023-01-19T05:48:39;10.50;99.90
57466;DHT22;67033;44.984;20.068;2023-01-19T05:51:05;10.40;99.90
57466;DHT22;67033;44.984;20.068;2023-01-19T05:53:32;10.50;99.90
57466;DHT22;67033;44.984;20.068;2023-01-19T05:56:02;10.50;99.90
57466;DHT22;67033;44.984;20.068;2023-01-19T05:58:30;10.60;99.90
57466;DHT22;67033;44.984;20.068;2023-01-19T06:00:56;10.60;99.90
57466;DHT22;67033;44.984;20.068;2023-01-19T06:03:26;10.60;99.90
57466;DHT22;67033;44.984;20.068;2023-01-19T06:05:51;10.60;99.90
57466;DHT22;67033;44.984;20.068;2023-01-19T06:08:17;10.70;99.90
57466;DHT22;67033;44.984;20.068;2023-01-19T06:10:43;10.70;99.90
57466;DHT22;67033;44.984;20.068;2023-01-19T06:13:09;10.70;99.90
57466;DHT22;67033;44.984;20.068;2023-01-19T06:15:35;10.90;99.90
57466;DHT22;67033;44.984;20.068;2023-01-19T06:18:02;10.60;99.90
57466;DHT22;67033;44.984;20.068;2023-01-19T06:20:28;10.50;99.90
57466;DHT22;67033;44.984;20.068;2023-01-19T06:22:56;10.50;99.90
57466;DHT22;67033;44.984;20.068;2023-01-19T06:25:22;10.40;99.90
57466;DHT22;67033;44.984;20.068;2023-01-19T06:27:50;10.30;99.90
57466;DHT22;67033;44.984;20.068;2023-01-19T06:32:45;10.10;99.90
57466;DHT22;67033;44.984;20.068;2023-01-19T06:35:12;10.20;99.90
57466;DHT22;67033;44.984;20.068;2023-01-19T06:37:38;10.20;99.90
57466;DHT22;67033;44.984;20.068;2023-01-19T06:40:05;10.10;99.90
57466;DHT22;67033;44.984;20.068;2023-01-19T06:42:31;10.10;99.90
57466;DHT22;67033;44.984;20.068;2023-01-19T06:44:57;10.10;99.90
57466;DHT22;67033;44.984;20.068;2023-01-19T06:47:23;10.10;99.90
57466;DHT22;67033;44.984;20.068;2023-01-19T06:49:49;10.00;99.90
57466;DHT22;67033;44.984;20.068;2023-01-19T06:52:15;10.10;99.90
57466;DHT22;67033;44.984;20.068;2023-01-19T06:54:46;9.90;99.90
57466;DHT22;67033;44.984;20.068;2023-01-19T06:57:13;9.90;99.90
57466;DHT22;67033;44.984;20.068;2023-01-19T06:59:39;10.00;99.90
57466;DHT22;67033;44.984;20.068;2023-01-19T07:02:05;10.10;99.90
57466;DHT22;67033;44.984;20.068;2023-01-19T07:04:31;10.10;99.90
57466;DHT22;67033;44.984;20.068;2023-01-19T07:06:58;10.10;99.90
57466;DHT22;67033;44.984;20.068;2023-01-19T07:09:24;10.10;99.90
57466;DHT22;67033;44.984;20.068;2023-01-19T07:11:50;10.10;99.90
57466;DHT22;67033;44.984;20.068;2023-01-19T07:14:16;10.20;99.90
57466;DHT22;67033;44.984;20.068;2023-01-19T07:16:42;10.20;99.90
57466;DHT22;67033;44.984;20.068;2023-01-19T07:19:08;10.20;99.90
57466;DHT22;67033;44.984;20.068;2023-01-19T07:21:35;10.20;99.90
57466;DHT22;67033;44.984;20.068;2023-01-19T07:24:02;10.20;99.90
57466;DHT22;67033;44.984;20.068;2023-01-19T07:26:28;10.10;99.90
57466;DHT22;67033;44.984;20.068;2023-01-19T07:28:53;10.10;99.90
57466;DHT22;67033;44.984;20.068;2023-01-19T07:31:19;10.00;99.90
57466;DHT22;67033;44.984;20.068;2023-01-19T07:33:46;10.00;99.90
57466;DHT22;67033;44.984;20.068;2023-01-19T07:36:12;10.10;99.90
57466;DHT22;67033;44.984;20.068;2023-01-19T07:38:38;10.10;99.90
57466;DHT22;67033;44.984;20.068;2023-01-19T07:41:06;10.00;99.90
57466;DHT22;67033;44.984;20.068;2023-01-19T07:43:33;10.10;99.90
57466;DHT22;67033;44.984;20.068;2023-01-19T07:46:00;10.00;99.90
57466;DHT22;67033;44.984;20.068;2023-01-19T07:48:27;10.10;99.90
57466;DHT22;67033;44.984;20.068;2023-01-19T07:50:57;10.10;99.90
57466;DHT22;67033;44.984;20.068;2023-01-19T07:53:23;10.10;99.90
57466;DHT22;67033;44.984;20.068;2023-01-19T07:55:56;10.10;99.90
57466;DHT22;67033;44.984;20.068;2023-01-19T07:58:24;10.10;99.90
57466;DHT22;67033;44.984;20.068;2023-01-19T08:00:51;10.20;99.90
57466;DHT22;67033;44.984;20.068;2023-01-19T08:03:17;10.10;99.90
57466;DHT22;67033;44.984;20.068;2023-01-19T08:05:44;10.20;99.90
57466;DHT22;67033;44.984;20.068;2023-01-19T08:10:41;10.10;99.90
57466;DHT22;67033;44.984;20.068;2023-01-19T08:13:07;10.00;99.90
57466;DHT22;67033;44.984;20.068;2023-01-19T08:15:33;10.00;99.90
57466;DHT22;67033;44.984;20.068;2023-01-19T08:22:57;10.10;99.90
57466;DHT22;67033;44.984;20.068;2023-01-19T08:25:41;10.10;99.90
57466;DHT22;67033;44.984;20.068;2023-01-19T08:28:14;10.10;99.90
57466;DHT22;67033;44.984;20.068;2023-01-19T08:30:40;10.20;99.90
57466;DHT22;67033;44.984;20.068;2023-01-19T08:33:08;10.20;99.90
57466;DHT22;67033;44.984;20.068;2023-01-19T08:35:36;10.20;99.90
57466;DHT22;67033;44.984;20.068;2023-01-19T08:38:03;10.20;99.90
57466;DHT22;67033;44.984;20.068;2023-01-19T08:40:32;10.20;99.90
57466;DHT22;67033;44.984;20.068;2023-01-19T08:43:02;10.20;99.90
57466;DHT22;67033;44.984;20.068;2023-01-19T08:47:58;10.20;99.90
57466;DHT22;67033;44.984;20.068;2023-01-19T08:50:31;10.60;99.90
57466;DHT22;67033;44.984;20.068;2023-01-19T08:52:58;10.20;99.90
57466;DHT22;67033;44.984;20.068;2023-01-19T08:55:25;10.30;99.90
57466;DHT22;67033;44.984;20.068;2023-01-19T08:57:52;10.30;99.90
57466;DHT22;67033;44.984;20.068;2023-01-19T09:00:19;10.30;99.90
57466;DHT22;67033;44.984;20.068;2023-01-19T09:02:45;10.30;99.90
57466;DHT22;67033;44.984;20.068;2023-01-19T09:05:11;10.50;99.90
57466;DHT22;67033;44.984;20.068;2023-01-19T09:07:37;10.80;99.90
57466;DHT22;67033;44.984;20.068;2023-01-19T09:10:04;10.90;99.90
57466;DHT22;67033;44.984;20.068;2023-01-19T09:12:31;10.90;99.90
57466;DHT22;67033;44.984;20.068;2023-01-19T09:14:57;11.00;99.90
57466;DHT22;67033;44.984;20.068;2023-01-19T09:17:22;11.10;99.90
57466;DHT22;67033;44.984;20.068;2023-01-19T09:19:48;11.20;99.90
57466;DHT22;67033;44.984;20.068;2023-01-19T09:22:14;11.10;99.90
57466;DHT22;67033;44.984;20.068;2023-01-19T09:24:40;11.10;99.90
57466;DHT22;67033;44.984;20.068;2023-01-19T09:27:06;11.50;99.90
57466;DHT22;67033;44.984;20.068;2023-01-19T09:29:32;11.20;99.90
57466;DHT22;67033;44.984;20.068;2023-01-19T09:31:58;11.20;99.90
57466;DHT22;67033;44.984;20.068;2023-01-19T09:34:24;11.30;99.90
57466;DHT22;67033;44.984;20.068;2023-01-19T09:36:53;11.40;99.90
57466;DHT22;67033;44.984;20.068;2023-01-19T09:39:19;11.60;99.90
57466;DHT22;67033;44.984;20.068;2023-01-19T09:41:55;11.90;99.90
57466;DHT22;67033;44.984;20.068;2023-01-19T09:44:32;11.90;99.90
57466;DHT22;67033;44.984;20.068;2023-01-19T09:47:11;12.00;99.90
57466;DHT22;67033;44.984;20.068;2023-01-19T09:49:42;12.10;99.90
57466;DHT22;67033;44.984;20.068;2023-01-19T09:52:13;12.40;99.90
57466;DHT22;67033;44.984;20.068;2023-01-19T09:54:48;12.50;99.90
57466;DHT22;67033;44.984;20.068;2023-01-19T09:57:15;12.60;99.90
57466;DHT22;67033;44.984;20.068;2023-01-19T09:59:41;13.00;99.90
57466;DHT22;67033;44.984;20.068;2023-01-19T10:02:37;13.40;99.90
57466;DHT22;67033;44.984;20.068;2023-01-19T10:10:58;13.70;99.90
57466;DHT22;67033;44.984;20.068;2023-01-19T10:13:48;13.40;99.90
57466;DHT22;67033;44.984;20.068;2023-01-19T10:16:37;13.50;99.90
57466;DHT22;67033;44.984;20.068;2023-01-19T10:19:32;13.40;99.90
57466;DHT22;67033;44.984;20.068;2023-01-19T10:22:06;13.30;99.90
57466;DHT22;67033;44.984;20.068;2023-01-19T10:24:42;13.20;99.90
57466;DHT22;67033;44.984;20.068;2023-01-19T10:27:29;13.20;99.90
57466;DHT22;67033;44.984;20.068;2023-01-19T10:29:56;13.10;99.90
57466;DHT22;67033;44.984;20.068;2023-01-19T10:32:32;13.00;99.90
57466;DHT22;67033;44.984;20.068;2023-01-19T10:35:13;13.00;99.90
57466;DHT22;67033;44.984;20.068;2023-01-19T10:37:46;13.30;99.90
57466;DHT22;67033;44.984;20.068;2023-01-19T10:40:26;13.60;99.90
57466;DHT22;67033;44.984;20.068;2023-01-19T10:42:53;13.70;99.90
57466;DHT22;67033;44.984;20.068;2023-01-19T10:45:24;14.00;99.90
57466;DHT22;67033;44.984;20.068;2023-01-19T10:47:52;14.20;99.90
57466;DHT22;67033;44.984;20.068;2023-01-19T10:50:25;14.20;99.90
57466;DHT22;67033;44.984;20.068;2023-01-19T10:52:53;14.30;99.90
57466;DHT22;67033;44.984;20.068;2023-01-19T10:55:34;14.30;99.90
57466;DHT22;67033;44.984;20.068;2023-01-19T10:58:02;14.20;99.90
57466;DHT22;67033;44.984;20.068;2023-01-19T11:00:31;14.20;99.90
57466;DHT22;67033;44.984;20.068;2023-01-19T11:02:58;13.90;99.90
57466;DHT22;67033;44.984;20.068;2023-01-19T11:05:27;13.90;99.90
57466;DHT22;67033;44.984;20.068;2023-01-19T11:07:53;13.80;99.90
57466;DHT22;67033;44.984;20.068;2023-01-19T11:10:22;13.70;99.90
57466;DHT22;67033;44.984;20.068;2023-01-19T11:18:26;13.80;99.90
57466;DHT22;67033;44.984;20.068;2023-01-19T11:20:55;13.70;99.90
57466;DHT22;67033;44.984;20.068;2023-01-19T11:23:34;13.40;99.90
57466;DHT22;67033;44.984;20.068;2023-01-19T11:28:54;13.10;99.90
57466;DHT22;67033;44.984;20.068;2023-01-19T11:31:32;13.10;99.90
57466;DHT22;67033;44.984;20.068;2023-01-19T11:34:22;12.80;99.90
57466;DHT22;67033;44.984;20.068;2023-01-19T11:37:04;12.70;99.90
57466;DHT22;67033;44.984;20.068;2023-01-19T11:39:44;12.60;99.90
57466;DHT22;67033;44.984;20.068;2023-01-19T11:42:11;12.30;99.90
57466;DHT22;67033;44.984;20.068;2023-01-19T11:44:49;12.30;99.90
57466;DHT22;67033;44.984;20.068;2023-01-19T11:47:45;12.00;99.90
57466;DHT22;67033;44.984;20.068;2023-01-19T11:52:56;11.80;99.90
57466;DHT22;67033;44.984;20.068;2023-01-19T11:58:23;11.80;99.90
57466;DHT22;67033;44.984;20.068;2023-01-19T12:04:18;12.40;99.90
57466;DHT22;67033;44.984;20.068;2023-01-19T12:06:48;12.30;99.90
57466;DHT22;67033;44.984;20.068;2023-01-19T12:09:19;12.20;99.90
57466;DHT22;67033;44.984;20.068;2023-01-19T12:17:28;11.90;99.90
57466;DHT22;67033;44.984;20.068;2023-01-19T12:26:00;11.80;99.90
57466;DHT22;67033;44.984;20.068;2023-01-19T12:28:35;11.60;99.90
57466;DHT22;67033;44.984;20.068;2023-01-19T12:31:02;11.10;99.90
57466;DHT22;67033;44.984;20.068;2023-01-19T12:36:09;10.90;99.90
57466;DHT22;67033;44.984;20.068;2023-01-19T12:39:11;10.90;99.90
57466;DHT22;67033;44.984;20.068;2023-01-19T12:41:39;10.80;99.90
57466;DHT22;67033;44.984;20.068;2023-01-19T12:46:35;11.00;99.90
57466;DHT22;67033;44.984;20.068;2023-01-19T12:51:36;10.80;99.90
57466;DHT22;67033;44.984;20.068;2023-01-19T12:54:06;10.60;99.90
57466;DHT22;67033;44.984;20.068;2023-01-19T12:56:36;10.70;99.90
57466;DHT22;67033;44.984;20.068;2023-01-19T12:59:03;10.60;99.90
57466;DHT22;67033;44.984;20.068;2023-01-19T13:01:30;10.40;99.90
57466;DHT22;67033;44.984;20.068;2023-01-19T13:09:43;10.30;99.90
57466;DHT22;67033;44.984;20.068;2023-01-19T13:12:23;10.30;99.90
57466;DHT22;67033;44.984;20.068;2023-01-19T13:17:23;10.10;99.90
57466;DHT22;67033;44.984;20.068;2023-01-19T13:19:57;10.00;99.90
57466;DHT22;67033;44.984;20.068;2023-01-19T13:25:29;9.80;99.90
57466;DHT22;67033;44.984;20.068;2023-01-19T13:27:58;9.80;99.90
57466;DHT22;67033;44.984;20.068;2023-01-19T13:30:26;9.80;99.90
57466;DHT22;67033;44.984;20.068;2023-01-19T13:32:55;9.70;99.90
57466;DHT22;67033;44.984;20.068;2023-01-19T13:35:24;9.80;99.90
57466;DHT22;67033;44.984;20.068;2023-01-19T13:37:51;9.90;99.90
57466;DHT22;67033;44.984;20.068;2023-01-19T13:40:24;9.90;99.90
57466;DHT22;67033;44.984;20.068;2023-01-19T13:42:55;9.90;99.90
57466;DHT22;67033;44.984;20.068;2023-01-19T13:47:54;9.70;99.90
57466;DHT22;67033;44.984;20.068;2023-01-19T13:50:27;9.50;99.90
57466;DHT22;67033;44.984;20.068;2023-01-19T13:52:53;9.20;99.90
57466;DHT22;67033;44.984;20.068;2023-01-19T13:55:21;9.20;99.90
57466;DHT22;67033;44.984;20.068;2023-01-19T13:57:48;9.30;99.90
57466;DHT22;67033;44.984;20.068;2023-01-19T14:00:17;9.20;99.90
57466;DHT22;67033;44.984;20.068;2023-01-19T14:02:58;9.10;99.90
57466;DHT22;67033;44.984;20.068;2023-01-19T14:05:39;9.00;99.90
57466;DHT22;67033;44.984;20.068;2023-01-19T14:13:32;9.10;99.90
57466;DHT22;67033;44.984;20.068;2023-01-19T14:16:04;8.90;99.90
57466;DHT22;67033;44.984;20.068;2023-01-19T14:18:34;8.60;99.90
57466;DHT22;67033;44.984;20.068;2023-01-19T14:24:08;8.80;99.90
57466;DHT22;67033;44.984;20.068;2023-01-19T14:31:50;8.60;99.90
57466;DHT22;67033;44.984;20.068;2023-01-19T14:34:40;8.50;99.90
57466;DHT22;67033;44.984;20.068;2023-01-19T14:37:27;8.40;99.90
57466;DHT22;67033;44.984;20.068;2023-01-19T14:40:01;8.30;99.90
57466;DHT22;67033;44.984;20.068;2023-01-19T14:42:33;8.20;99.90
57466;DHT22;67033;44.984;20.068;2023-01-19T14:45:02;8.00;99.90
57466;DHT22;67033;44.984;20.068;2023-01-19T14:47:41;7.90;99.90
57466;DHT22;67033;44.984;20.068;2023-01-19T14:50:29;7.90;99.90
57466;DHT22;67033;44.984;20.068;2023-01-19T14:53:19;8.00;99.90
57466;DHT22;67033;44.984;20.068;2023-01-19T14:58:24;9.00;99.90
57466;DHT22;67033;44.984;20.068;2023-01-19T15:00:52;8.20;99.90
57466;DHT22;67033;44.984;20.068;2023-01-19T15:03:23;7.90;99.90
57466;DHT22;67033;44.984;20.068;2023-01-19T15:05:50;8.00;99.90
57466;DHT22;67033;44.984;20.068;2023-01-19T15:08:19;8.00;99.90
57466;DHT22;67033;44.984;20.068;2023-01-19T15:10:48;7.90;99.90
57466;DHT22;67033;44.984;20.068;2023-01-19T15:15:48;7.80;99.90
57466;DHT22;67033;44.984;20.068;2023-01-19T15:18:23;7.70;99.90
57466;DHT22;67033;44.984;20.068;2023-01-19T15:23:16;7.60;99.90
57466;DHT22;67033;44.984;20.068;2023-01-19T15:25:42;7.50;99.90
57466;DHT22;67033;44.984;20.068;2023-01-19T15:28:17;7.50;99.90
57466;DHT22;67033;44.984;20.068;2023-01-19T15:30:44;7.50;99.90
57466;DHT22;67033;44.984;20.068;2023-01-19T15:33:21;7.50;99.90
57466;DHT22;67033;44.984;20.068;2023-01-19T15:35:47;7.50;99.90
57466;DHT22;67033;44.984;20.068;2023-01-19T15:38:13;7.60;99.90
57466;DHT22;67033;44.984;20.068;2023-01-19T15:40:39;7.50;99.90
57466;DHT22;67033;44.984;20.068;2023-01-19T15:43:05;7.50;99.90
57466;DHT22;67033;44.984;20.068;2023-01-19T15:48:00;7.20;99.90
57466;DHT22;67033;44.984;20.068;2023-01-19T15:50:28;7.20;99.90
57466;DHT22;67033;44.984;20.068;2023-01-19T15:52:54;7.10;99.90
57466;DHT22;67033;44.984;20.068;2023-01-19T15:55:20;7.20;99.90
57466;DHT22;67033;44.984;20.068;2023-01-19T15:57:46;7.30;99.90
57466;DHT22;67033;44.984;20.068;2023-01-19T16:00:13;7.10;99.90
57466;DHT22;67033;44.984;20.068;2023-01-19T16:02:39;7.20;99.90
57466;DHT22;67033;44.984;20.068;2023-01-19T16:05:06;7.20;99.90
57466;DHT22;67033;44.984;20.068;2023-01-19T16:07:33;7.40;99.90
57466;DHT22;67033;44.984;20.068;2023-01-19T16:09:59;7.50;99.90
57466;DHT22;67033;44.984;20.068;2023-01-19T16:12:25;7.30;99.90
57466;DHT22;67033;44.984;20.068;2023-01-19T16:14:52;7.20;99.90
57466;DHT22;67033;44.984;20.068;2023-01-19T16:17:18;7.00;99.90
57466;DHT22;67033;44.984;20.068;2023-01-19T16:19:45;7.10;99.90
57466;DHT22;67033;44.984;20.068;2023-01-19T16:24:37;7.00;99.90
57466;DHT22;67033;44.984;20.068;2023-01-19T16:27:03;6.80;99.90
57466;DHT22;67033;44.984;20.068;2023-01-19T16:29:29;6.70;99.90
57466;DHT22;67033;44.984;20.068;2023-01-19T16:31:55;6.80;99.90
57466;DHT22;67033;44.984;20.068;2023-01-19T16:34:21;6.70;99.90
57466;DHT22;67033;44.984;20.068;2023-01-19T16:36:50;6.60;99.90
57466;DHT22;67033;44.984;20.068;2023-01-19T16:39:16;6.60;99.90
57466;DHT22;67033;44.984;20.068;2023-01-19T16:41:43;6.60;99.90
57466;DHT22;67033;44.984;20.068;2023-01-19T16:44:14;6.60;99.90
57466;DHT22;67033;44.984;20.068;2023-01-19T16:46:43;6.60;99.90
57466;DHT22;67033;44.984;20.068;2023-01-19T16:49:31;6.50;99.90
57466;DHT22;67033;44.984;20.068;2023-01-19T16:51:58;6.60;99.90
57466;DHT22;67033;44.984;20.068;2023-01-19T16:54:25;6.50;99.90
57466;DHT22;67033;44.984;20.068;2023-01-19T16:56:53;6.50;99.90
57466;DHT22;67033;44.984;20.068;2023-01-19T16:59:20;6.60;99.90
57466;DHT22;67033;44.984;20.068;2023-01-19T17:01:47;6.60;99.90
57466;DHT22;67033;44.984;20.068;2023-01-19T17:04:15;6.70;99.90
57466;DHT22;67033;44.984;20.068;2023-01-19T17:06:41;6.70;99.90
57466;DHT22;67033;44.984;20.068;2023-01-19T17:09:07;6.70;99.90
57466;DHT22;67033;44.984;20.068;2023-01-19T17:11:37;6.80;99.90
57466;DHT22;67033;44.984;20.068;2023-01-19T17:14:07;6.80;99.90
57466;DHT22;67033;44.984;20.068;2023-01-19T17:16:34;6.90;99.90
57466;DHT22;67033;44.984;20.068;2023-01-19T17:19:01;7.00;99.90
57466;DHT22;67033;44.984;20.068;2023-01-19T17:21:28;7.00;99.90
57466;DHT22;67033;44.984;20.068;2023-01-19T17:23:55;7.00;99.90
57466;DHT22;67033;44.984;20.068;2023-01-19T17:26:22;7.00;99.90
57466;DHT22;67033;44.984;20.068;2023-01-19T17:28:50;7.00;99.90